Time;durP1;ratioP1;P1;durP2;ratioP2;P2;SDS_P1;SDS_P2;PMS_P1;PMS_P2;Temp;Humidity;BMP_temperature;BMP_pressure;BME280_temperature;BME280_humidity;BME280_pressure;Samples;Min_cycle;Max_cycle;Signal;HPM_P1;HPM_P2
2022/05/11 07:23:13;;;;;;;9.40;2.20;;;21.20;99.90;;;;;;5111397;27;20379;-45
2022/05/11 07:25:40;;;;;;;15.18;2.40;;;21.20;99.90;;;;;;5103539;28;20054;-39
2022/05/11 07:28:08;;;;;;;7.13;1.90;;;21.30;99.90;;;;;;5055992;28;20180;-42
2022/05/11 07:30:37;;;;;;;11.23;1.90;;;21.30;99.90;;;;;;5083256;28;20095;-42
2022/05/11 07:33:07;;;;;;;10.02;2.30;;;21.40;99.90;;;;;;5083175;28;20044;-41
2022/05/11 07:35:35;;;;;;;10.68;2.28;;;21.50;99.90;;;;;;5076495;28;20047;-43
2022/05/11 07:38:08;;;;;;;11.90;2.40;;;21.60;99.90;;;;;;5044068;28;20499;-44
2022/05/11 07:40:36;;;;;;;13.98;2.50;;;21.60;99.90;;;;;;5078790;28;20063;-43
2022/05/11 07:43:04;;;;;;;16.08;3.40;;;21.70;99.90;;;;;;5062246;28;20059;-45
2022/05/11 07:45:31;;;;;;;;;;;21.70;99.90;;;;;;5075378;28;20052;-48
2022/05/11 07:47:59;;;;;;;13.05;2.58;;;21.80;99.90;;;;;;5079820;28;20378;-44
2022/05/11 07:50:26;;;;;;;9.02;2.33;;;21.90;99.90;;;;;;5064431;28;20040;-46
2022/05/11 07:52:54;;;;;;;8.90;2.53;;;21.90;99.90;;;;;;5075965;28;20376;-45
2022/05/11 07:55:24;;;;;;;10.75;2.55;;;22.00;99.90;;;;;;5062549;28;20463;-43
2022/05/11 08:00:38;;;;;;;11.32;2.53;;;22.10;99.90;;;;;;5059897;28;20032;-42
2022/05/11 08:03:08;;;;;;;14.88;2.30;;;22.10;99.90;;;;;;5071412;28;20053;-43
2022/05/11 08:05:36;;;;;;;13.93;2.70;;;22.10;99.90;;;;;;5070666;28;20040;-41
2022/05/11 08:08:06;;;;;;;13.15;2.33;;;22.10;99.90;;;;;;5057069;28;20070;-45
2022/05/11 08:10:42;;;;;;;15.18;2.65;;;22.10;99.90;;;;;;5100806;28;20036;-40
2022/05/11 08:13:12;;;;;;;17.10;2.38;;;22.10;99.90;;;;;;5085853;28;20051;-43
2022/05/11 08:15:43;;;;;;;13.02;2.65;;;22.20;99.90;;;;;;5078943;28;20063;-43
2022/05/11 08:18:13;;;;;;;13.35;2.28;;;22.20;99.90;;;;;;5063216;28;20495;-41
2022/05/11 08:20:43;;;;;;;13.50;2.15;;;22.20;99.90;;;;;;5050083;28;20060;-46
2022/05/11 08:23:12;;;;;;;8.55;2.25;;;22.20;99.90;;;;;;5060075;28;20048;-47
2022/05/11 08:25:41;;;;;;;8.32;1.95;;;22.20;99.90;;;;;;5093103;28;20406;-43
2022/05/11 08:28:13;;;;;;;10.45;2.08;;;22.20;99.90;;;;;;5057358;28;20060;-42
2022/05/11 08:33:30;;;;;;;10.73;2.20;;;22.30;99.90;;;;;;5073047;28;20563;-43
2022/05/11 08:36:20;;;;;;;12.02;2.47;;;22.30;99.90;;;;;;5047197;28;20779;-41
2022/05/11 08:38:50;;;;;;;12.43;2.38;;;22.30;99.90;;;;;;5052003;28;20045;-45
2022/05/11 08:41:36;;;;;;;12.15;2.10;;;22.30;99.90;;;;;;5067637;28;20537;-41
2022/05/11 08:44:11;;;;;;;8.93;1.98;;;22.30;99.90;;;;;;5052164;28;20045;-45
2022/05/11 08:46:43;;;;;;;11.30;2.30;;;22.30;99.90;;;;;;5047696;28;20056;-40
2022/05/11 08:49:45;;;;;;;10.93;2.00;;;22.30;99.90;;;;;;5045700;28;20384;-42
2022/05/11 08:52:34;;;;;;;6.07;1.77;;;22.30;99.90;;;;;;5044018;28;20041;-43
2022/05/11 08:55:31;;;;;;;13.90;2.30;;;22.40;99.90;;;;;;5040251;28;20055;-39
2022/05/11 08:58:06;;;;;;;12.48;2.53;;;22.40;99.90;;;;;;5044030;28;20048;-47
2022/05/11 09:00:39;;;;;;;10.30;2.40;;;22.40;99.90;;;;;;5042707;28;20077;-41
2022/05/11 09:03:15;;;;;;;8.80;2.33;;;22.40;99.90;;;;;;5072767;28;20050;-42
2022/05/11 09:05:42;;;;;;;9.85;2.20;;;22.40;99.90;;;;;;5040469;28;20041;-46
2022/05/11 09:08:11;;;;;;;;;;;22.40;99.90;;;;;;5048636;28;20045;-41
2022/05/11 09:10:39;;;;;;;7.00;1.75;;;22.40;99.90;;;;;;5066973;28;19920;-46
2022/05/11 09:13:11;;;;;;;7.18;2.00;;;22.40;99.90;;;;;;5059821;28;20367;-43
2022/05/11 09:15:56;;;;;;;8.10;2.10;;;22.40;99.90;;;;;;5047891;28;20045;-47
2022/05/11 09:18:36;;;;;;;8.43;2.03;;;22.50;99.90;;;;;;5048265;28;20057;-46
2022/05/11 09:21:29;;;;;;;7.22;1.90;;;22.40;99.90;;;;;;5067872;28;20037;-41
2022/05/11 09:24:10;;;;;;;6.72;2.05;;;22.50;99.90;;;;;;5059342;28;20496;-41
2022/05/11 09:26:41;;;;;;;12.50;2.72;;;22.50;99.90;;;;;;5047903;28;20494;-39
2022/05/11 09:29:19;;;;;;;12.02;2.28;;;22.50;99.90;;;;;;5049945;28;20807;-44
2022/05/11 09:31:50;;;;;;;13.10;2.50;;;22.50;99.90;;;;;;5026731;28;20041;-44
2022/05/11 09:34:32;;;;;;;8.75;2.28;;;22.50;99.90;;;;;;5045932;28;20381;-40
2022/05/11 09:37:35;;;;;;;6.65;2.03;;;22.50;99.90;;;;;;5047254;28;20053;-40
2022/05/11 09:40:06;;;;;;;18.13;2.67;;;22.50;99.90;;;;;;5093242;28;20071;-39
2022/05/11 09:44:56;;;;;;;12.55;2.20;;;;;;;;;;4905717;28;59030;-45
2022/05/11 09:47:35;;;;;;;14.70;2.20;;;;;;;;;;5027707;28;20041;-44
2022/05/11 09:50:56;;;;;;;11.38;2.40;;;;;;;;;;4916029;27;20504;-44
2022/05/11 09:53:27;;;;;;;13.20;2.28;;;;;;;;;;4945691;28;20054;-42
2022/05/11 09:56:29;;;;;;;12.20;2.65;;;22.30;99.20;;;;;;4791393;27;20487;-41
2022/05/11 09:59:22;;;;;;;13.80;2.50;;;22.30;99.50;;;;;;4905659;28;20044;-47
2022/05/11 10:02:12;;;;;;;13.00;2.65;;;22.30;99.70;;;;;;5007602;28;20056;-50
2022/05/11 10:04:44;;;;;;;15.13;2.65;;;22.20;99.70;;;;;;5009715;28;20067;-45
2022/05/11 10:07:16;;;;;;;17.20;2.65;;;22.20;99.90;;;;;;5020471;28;20061;-50
2022/05/11 10:09:49;;;;;;;10.18;2.20;;;22.20;99.90;;;;;;4940923;28;20048;-49
2022/05/11 10:12:23;;;;;;;14.75;2.33;;;22.30;99.90;;;;;;5064046;28;20059;-52
2022/05/11 10:23:53;;;;;;;12.40;2.70;;;22.60;99.90;;;;;;5081155;28;20095;-47
2022/05/11 10:26:35;;;;;;;12.77;2.53;;;22.70;99.90;;;;;;5067101;28;20407;-46
2022/05/11 10:29:31;;;;;;;10.50;2.28;;;22.70;99.90;;;;;;5081007;28;20048;-47
2022/05/11 10:32:29;;;;;;;16.48;2.70;;;22.70;99.80;;;;;;5081805;28;20044;-44
2022/05/11 10:35:28;;;;;;;12.95;2.28;;;22.70;99.80;;;;;;5091670;28;20063;-45
2022/05/11 10:38:01;;;;;;;14.35;2.30;;;22.70;99.80;;;;;;5078332;28;20143;-46
2022/05/11 10:40:38;;;;;;;12.05;2.30;;;22.70;99.90;;;;;;5067865;28;20525;-44
2022/05/11 10:43:42;;;;;;;12.75;2.22;;;22.70;99.90;;;;;;5061216;28;20045;-49
2022/05/11 10:46:25;;;;;;;14.95;2.63;;;22.70;99.90;;;;;;5061995;28;20052;-48
2022/05/11 10:49:11;;;;;;;18.23;2.60;;;22.70;99.90;;;;;;5069375;28;20048;-47
2022/05/11 10:51:54;;;;;;;18.20;2.80;;;22.70;99.90;;;;;;5061069;28;20044;-47
2022/05/11 10:54:48;;;;;;;20.63;2.85;;;22.60;99.90;;;;;;5072227;28;20437;-45
2022/05/11 10:57:21;;;;;;;17.48;2.90;;;22.60;99.90;;;;;;5081644;28;20047;-50
2022/05/11 11:00:06;;;;;;;18.58;2.95;;;22.60;99.90;;;;;;5056952;28;20048;-47
2022/05/11 11:02:56;;;;;;;16.08;2.53;;;22.60;99.90;;;;;;5077409;28;20495;-46
2022/05/11 11:05:24;;;;;;;16.83;2.50;;;22.60;99.90;;;;;;5082845;28;20040;-45
2022/05/11 11:08:24;;;;;;;16.23;2.83;;;22.60;99.90;;;;;;5082269;28;20052;-43
2022/05/11 11:10:57;;;;;;;10.52;2.35;;;22.60;99.90;;;;;;5068367;28;20040;-42
2022/05/11 11:13:43;;;;;;;17.13;2.55;;;22.60;99.90;;;;;;5064562;28;20052;-46
2022/05/11 11:16:13;;;;;;;13.90;2.70;;;22.60;99.90;;;;;;5067805;28;20056;-46
2022/05/11 11:18:46;;;;;;;14.65;3.20;;;22.50;99.90;;;;;;5066039;28;20059;-46
2022/05/11 11:21:14;;;;;;;15.18;2.75;;;22.50;99.90;;;;;;5050193;28;20047;-47
2022/05/11 11:23:43;;;;;;;;;;;22.50;99.90;;;;;;5061797;28;20045;-45
2022/05/11 11:26:13;;;;;;;14.40;2.97;;;22.50;99.90;;;;;;5068683;28;20394;-44
2022/05/11 11:28:40;;;;;;;18.10;3.00;;;22.50;99.90;;;;;;5065880;28;20056;-44
2022/05/11 11:31:14;;;;;;;14.43;2.67;;;22.50;99.90;;;;;;5067753;28;20045;-45
2022/05/11 11:33:56;;;;;;;13.00;2.92;;;22.60;99.90;;;;;;5066345;28;20051;-44
2022/05/11 11:36:40;;;;;;;14.93;3.10;;;22.60;99.90;;;;;;5082754;28;20051;-47
2022/05/11 11:39:32;;;;;;;14.10;3.03;;;22.60;99.90;;;;;;5066496;28;20040;-43
2022/05/11 11:42:03;;;;;;;11.90;2.42;;;22.60;99.90;;;;;;5072751;28;20045;-47
2022/05/11 11:44:46;;;;;;;16.58;2.90;;;22.60;99.90;;;;;;5049231;28;20464;-45
2022/05/11 11:47:57;;;;;;;14.70;3.13;;;22.60;99.90;;;;;;5065580;28;20072;-48
2022/05/11 11:50:46;;;;;;;12.40;2.80;;;22.60;99.90;;;;;;5063047;28;20037;-46
2022/05/11 11:53:43;;;;;;;12.00;2.58;;;22.60;99.90;;;;;;5064645;28;20052;-43
2022/05/11 11:56:23;;;;;;;23.38;3.05;;;22.50;99.90;;;;;;5059294;28;20064;-47
2022/05/11 11:59:03;;;;;;;15.43;2.88;;;22.50;99.90;;;;;;5062471;28;20037;-48
2022/05/11 12:24:48;;;;;;;19.63;3.95;;;20.40;99.90;;;;;;5111368;27;20661;-69
2022/05/11 12:27:42;;;;;;;15.55;3.17;;;18.30;99.90;;;;;;5079487;28;20371;-70
2022/05/11 12:30:30;;;;;;;18.80;3.35;;;17.80;99.90;;;;;;4962844;28;20054;-69
2022/05/11 12:33:00;;;;;;;16.60;3.03;;;17.50;99.90;;;;;;5010257;28;20061;-68
2022/05/11 12:35:30;;;;;;;17.85;3.28;;;17.30;99.90;;;;;;5012068;28;20377;-77
2022/05/11 12:38:06;;;;;;;14.35;2.65;;;16.90;99.90;;;;;;5009468;28;20046;-79
2022/05/11 12:40:40;;;;;;;9.50;2.08;;;16.60;99.90;;;;;;5010834;28;20046;-79
2022/05/11 12:43:30;;;;;;;18.35;3.13;;;16.20;99.90;;;;;;5011666;28;20050;-78
2022/05/11 12:46:02;;;;;;;19.83;3.42;;;16.10;99.90;;;;;;5011215;28;20489;-73
2022/05/11 12:48:33;;;;;;;19.42;3.42;;;16.00;99.90;;;;;;5011731;28;20485;-79
2022/05/11 12:51:10;;;;;;;15.60;2.95;;;16.20;99.90;;;;;;5009626;28;20065;-76
2022/05/11 12:53:47;;;;;;;13.00;2.85;;;16.20;99.90;;;;;;5011652;28;20065;-78
2022/05/11 12:56:19;;;;;;;18.45;3.60;;;16.10;99.90;;;;;;5010675;28;20050;-77
2022/05/11 12:58:54;;;;;;;16.42;2.70;;;16.20;99.90;;;;;;5010939;28;20057;-75
2022/05/11 13:01:25;;;;;;;18.38;3.38;;;16.30;99.90;;;;;;5011089;28;20469;-78
2022/05/11 13:03:58;;;;;;;14.93;3.40;;;16.30;99.90;;;;;;5011708;28;20050;-77
2022/05/11 13:06:40;;;;;;;14.68;3.00;;;16.30;99.90;;;;;;5011247;28;20046;-76
2022/05/11 13:09:19;;;;;;;15.82;3.33;;;16.30;99.90;;;;;;5011575;28;20038;-79
2022/05/11 13:11:47;;;;;;;14.07;2.78;;;16.20;99.90;;;;;;5010754;28;20118;-73
2022/05/11 13:14:23;;;;;;;17.20;3.45;;;16.10;99.90;;;;;;5011188;28;20072;-74
2022/05/11 13:16:58;;;;;;;14.25;2.90;;;16.10;99.90;;;;;;5011389;28;20053;-75
2022/05/11 13:19:25;;;;;;;12.27;2.80;;;16.00;99.90;;;;;;5009832;28;20046;-75
2022/05/11 13:21:56;;;;;;;10.57;2.70;;;15.90;99.90;;;;;;5010598;28;20064;-74
2022/05/11 13:24:42;;;;;;;17.52;3.50;;;15.80;99.90;;;;;;5027455;28;20046;-74
2022/05/11 13:27:40;;;;;;;15.93;3.33;;;15.80;99.90;;;;;;5030541;28;20468;-74
2022/05/11 13:30:12;;;;;;;13.68;3.17;;;15.80;99.90;;;;;;5007812;28;20041;-75
2022/05/11 13:32:45;;;;;;;16.58;3.78;;;15.90;99.90;;;;;;5029453;28;20042;-75
2022/05/11 13:35:21;;;;;;;18.63;3.55;;;15.90;99.90;;;;;;5021525;28;20468;-74
2022/05/11 13:38:08;;;;;;;18.52;3.38;;;15.90;99.90;;;;;;5016692;28;20065;-75
2022/05/11 13:40:35;;;;;;;17.30;3.33;;;15.70;99.90;;;;;;5017395;28;20064;-75
2022/05/11 13:43:23;;;;;;;14.90;3.28;;;15.50;99.90;;;;;;5017061;28;20053;-75
2022/05/11 13:46:05;;;;;;;16.85;3.08;;;15.40;99.90;;;;;;5016349;28;20377;-75
2022/05/11 13:48:37;;;;;;;19.58;3.78;;;15.30;99.90;;;;;;5016925;28;20042;-76
2022/05/11 13:51:39;;;;;;;14.95;3.17;;;15.20;99.90;;;;;;5016358;28;20380;-76
2022/05/11 13:54:35;;;;;;;11.57;2.70;;;15.10;99.90;;;;;;5003916;28;20049;-76
2022/05/11 13:57:07;;;;;;;13.35;2.63;;;15.00;99.90;;;;;;5016982;28;20057;-75
2022/05/11 13:59:45;;;;;;;13.30;2.40;;;14.90;99.90;;;;;;5016030;28;20045;-74
2022/05/11 14:02:15;;;;;;;10.48;2.03;;;14.80;99.90;;;;;;5016913;28;20046;-74
2022/05/11 14:04:46;;;;;;;9.90;2.28;;;14.70;99.90;;;;;;5015744;28;20373;-75
2022/05/11 14:07:28;;;;;;;7.60;2.17;;;14.60;99.90;;;;;;5016830;28;20049;-73
2022/05/11 14:09:56;;;;;;;11.30;2.83;;;14.80;99.90;;;;;;5016953;28;20376;-74
2022/05/11 14:12:25;;;;;;;7.25;1.88;;;14.70;99.90;;;;;;4998743;28;20037;-75
2022/05/11 14:14:53;;;;;;;5.68;1.75;;;14.80;99.90;;;;;;5016715;28;20065;-74
2022/05/11 14:17:24;;;;;;;6.93;1.80;;;14.70;99.90;;;;;;5015707;28;20057;-74
2022/05/11 14:19:58;;;;;;;5.18;1.60;;;14.70;99.90;;;;;;5016713;28;20046;-73
2022/05/11 14:22:28;;;;;;;6.13;1.77;;;14.60;99.90;;;;;;4999531;28;20053;-74
2022/05/11 14:24:55;;;;;;;9.48;1.83;;;14.60;99.90;;;;;;5015598;28;20038;-74
2022/05/11 14:27:23;;;;;;;8.27;1.92;;;14.50;99.90;;;;;;5016433;28;20053;-75
2022/05/11 14:29:51;;;;;;;5.38;1.67;;;14.50;99.90;;;;;;5016341;28;20361;-75
2022/05/11 14:32:29;;;;;;;5.53;1.40;;;14.50;99.90;;;;;;5015439;28;20042;-74
2022/05/11 14:35:09;;;;;;;10.15;1.92;;;14.50;99.90;;;;;;5016269;28;20381;-74
2022/05/11 14:37:38;;;;;;;5.20;1.58;;;14.40;99.90;;;;;;5015227;28;20054;-74
2022/05/11 14:40:08;;;;;;;8.90;1.70;;;14.40;99.90;;;;;;5016161;28;20045;-74
2022/05/11 14:42:36;;;;;;;8.50;1.90;;;14.40;99.90;;;;;;5016407;28;20053;-75
2022/05/11 14:45:05;;;;;;;6.75;1.98;;;14.30;99.90;;;;;;5015282;28;20045;-73
2022/05/11 14:47:46;;;;;;;9.05;1.95;;;14.30;99.90;;;;;;5014896;28;20060;-75
2022/05/11 14:50:20;;;;;;;9.25;1.60;;;14.30;99.90;;;;;;5016235;28;20046;-74
2022/05/11 14:52:50;;;;;;;8.65;1.80;;;14.20;99.90;;;;;;5015283;28;20048;-75
2022/05/11 14:55:19;;;;;;;6.63;1.90;;;14.30;99.90;;;;;;4998883;28;20465;-74
2022/05/11 15:03:22;;;;;;;5.05;1.45;;;14.30;99.90;;;;;;5016007;28;20053;-74
2022/05/11 15:05:51;;;;;;;4.57;1.40;;;14.30;99.90;;;;;;5014871;28;20049;-74
2022/05/11 15:08:19;;;;;;;4.45;1.33;;;14.30;99.90;;;;;;5015932;28;20042;-75
2022/05/11 15:10:47;;;;;;;3.35;1.25;;;14.30;99.90;;;;;;5014965;28;20052;-75
2022/05/11 15:13:30;;;;;;;5.90;1.23;;;14.30;99.90;;;;;;5015686;28;20063;-74
2022/05/11 15:15:59;;;;;;;8.52;1.40;;;14.30;99.90;;;;;;5015605;28;20046;-73
2022/05/11 15:18:28;;;;;;;4.30;1.33;;;14.30;99.90;;;;;;5014755;28;20053;-74
2022/05/11 15:20:57;;;;;;;5.63;1.50;;;14.20;99.90;;;;;;5015643;28;20038;-74
2022/05/11 15:23:24;;;;;;;6.32;1.88;;;14.10;99.90;;;;;;5015251;28;20141;-75
2022/05/11 15:25:52;;;;;;;8.38;2.13;;;14.10;99.90;;;;;;5014627;28;20046;-75
2022/05/11 15:28:20;;;;;;;6.72;1.80;;;14.10;99.90;;;;;;5015473;28;20046;-74
2022/05/11 15:30:48;;;;;;;5.20;1.50;;;14.20;99.90;;;;;;5014496;28;20049;-72
2022/05/11 15:33:21;;;;;;;6.22;1.77;;;14.20;99.90;;;;;;4998370;28;20108;-75
2022/05/11 15:35:55;;;;;;;6.10;1.70;;;14.40;99.90;;;;;;5015339;28;20061;-75
2022/05/11 15:38:23;;;;;;;3.42;1.10;;;14.40;99.90;;;;;;4997278;28;20068;-74
2022/05/11 15:40:51;;;;;;;3.60;1.02;;;14.50;99.90;;;;;;5015504;28;20408;-74
2022/05/11 15:43:20;;;;;;;4.30;1.50;;;14.50;99.90;;;;;;4998083;28;20572;-74
2022/05/11 15:46:02;;;;;;;4.18;1.30;;;14.60;99.90;;;;;;5013959;28;20377;-75
2022/05/11 15:48:31;;;;;;;4.07;1.20;;;14.60;99.90;;;;;;5015082;28;20484;-75
2022/05/11 15:51:00;;;;;;;3.05;1.10;;;14.70;99.90;;;;;;4997024;28;20050;-74
2022/05/11 15:53:33;;;;;;;3.13;1.05;;;14.70;99.90;;;;;;5011424;28;20065;-75
2022/05/11 15:56:01;;;;;;;2.70;1.00;;;14.80;99.90;;;;;;5014080;28;20408;-75
2022/05/11 15:58:30;;;;;;;3.92;1.38;;;14.70;99.90;;;;;;4996927;28;20042;-76
2022/05/11 16:00:59;;;;;;;3.95;0.98;;;14.60;99.90;;;;;;4998274;28;20053;-74
2022/05/11 16:03:27;;;;;;;3.63;1.23;;;14.60;99.90;;;;;;5015362;28;20057;-77
2022/05/11 16:05:54;;;;;;;3.33;1.38;;;14.50;99.90;;;;;;5014248;28;20050;-75
2022/05/11 16:08:23;;;;;;;5.85;1.50;;;14.50;99.90;;;;;;4998092;28;20125;-74
2022/05/11 16:10:55;;;;;;;4.60;1.35;;;14.50;99.90;;;;;;5014269;28;20469;-76
2022/05/11 16:13:22;;;;;;;5.32;1.60;;;14.50;99.90;;;;;;4995870;28;20042;-75
2022/05/11 16:15:50;;;;;;;4.93;1.38;;;14.50;99.90;;;;;;4995474;28;20073;-75
2022/05/11 16:21:06;;;;;;;5.13;1.10;;;14.60;99.90;;;;;;4995989;28;20068;-75
2022/05/11 16:23:34;;;;;;;4.68;1.50;;;14.80;99.90;;;;;;4992049;28;20065;-75
2022/05/11 16:26:02;;;;;;;3.88;1.48;;;14.90;99.90;;;;;;5013818;28;20038;-76
2022/05/11 16:28:30;;;;;;;3.47;1.30;;;15.00;99.90;;;;;;5014799;28;20053;-76
2022/05/11 16:30:58;;;;;;;4.93;1.08;;;15.20;99.90;;;;;;5014304;28;20050;-76
2022/05/11 16:33:27;;;;;;;;;;;15.30;99.90;;;;;;5015102;28;20038;-75
2022/05/11 16:35:54;;;;;;;2.38;0.85;;;15.40;99.90;;;;;;5004801;28;19926;-76
2022/05/11 16:38:22;;;;;;;5.05;1.13;;;15.60;99.90;;;;;;4994111;28;20054;-76
2022/05/11 16:40:49;;;;;;;2.58;0.90;;;15.60;99.90;;;;;;5003580;28;20049;-75
2022/05/11 16:43:17;;;;;;;7.13;2.00;;;15.60;99.90;;;;;;5014613;28;20361;-76
2022/05/11 16:45:45;;;;;;;2.15;0.90;;;15.50;99.90;;;;;;5013771;28;20054;-75
2022/05/11 16:48:13;;;;;;;4.32;1.40;;;15.40;99.90;;;;;;4999565;28;20048;-73
2022/05/11 16:50:41;;;;;;;4.47;1.45;;;15.20;99.90;;;;;;4992485;28;20051;-75
2022/05/11 16:53:08;;;;;;;3.83;1.40;;;15.10;99.90;;;;;;4995426;28;20053;-74
2022/05/11 16:55:36;;;;;;;15.90;2.85;;;14.90;99.90;;;;;;4994948;28;20050;-72
2022/05/11 16:58:03;;;;;;;79.18;5.95;;;14.80;99.90;;;;;;4993926;28;20061;-74
2022/05/11 17:00:31;;;;;;;10.75;4.63;;;14.70;99.90;;;;;;4994868;28;20054;-72
2022/05/11 17:03:08;;;;;;;17.35;7.18;;;14.50;99.90;;;;;;4994493;28;20057;-71
2022/05/11 17:05:36;;;;;;;20.38;8.65;;;14.50;99.90;;;;;;4993455;28;20050;-73
2022/05/11 17:08:04;;;;;;;17.85;7.78;;;14.40;99.90;;;;;;4994633;28;20488;-73
2022/05/11 17:10:33;;;;;;;8.43;4.03;;;14.40;99.90;;;;;;4980046;28;20042;-71
2022/05/11 17:13:00;;;;;;;10.88;5.05;;;14.40;99.90;;;;;;4997355;28;20049;-71
2022/05/11 17:15:28;;;;;;;10.63;4.40;;;14.50;99.90;;;;;;4981093;28;20046;-71
2022/05/11 17:17:56;;;;;;;7.55;2.78;;;14.50;99.90;;;;;;4997162;28;20050;-72
2022/05/11 17:20:24;;;;;;;6.80;3.10;;;14.60;99.90;;;;;;4997935;28;20046;-73
2022/05/11 17:22:51;;;;;;;6.18;2.65;;;14.50;99.90;;;;;;4998150;28;20050;-72
2022/05/11 17:25:19;;;;;;;4.43;2.08;;;14.50;99.90;;;;;;4997190;28;20046;-72
2022/05/11 17:27:47;;;;;;;7.53;3.15;;;14.40;99.90;;;;;;4998018;28;20051;-72
2022/05/11 17:30:15;;;;;;;5.15;2.22;;;14.50;99.90;;;;;;4997946;28;20061;-72
2022/05/11 17:32:43;;;;;;;7.70;2.22;;;14.50;99.90;;;;;;4997114;28;20488;-71
2022/05/11 17:35:13;;;;;;;9.80;4.50;;;14.50;99.90;;;;;;4980837;28;20336;-72
2022/05/11 17:37:42;;;;;;;5.65;2.30;;;14.30;99.90;;;;;;4997013;28;20354;-72
2022/05/11 17:40:11;;;;;;;4.82;2.13;;;14.10;99.90;;;;;;4997865;28;20057;-72
2022/05/11 17:42:42;;;;;;;5.93;2.60;;;14.10;99.90;;;;;;4997752;28;20393;-72
2022/05/11 17:45:16;;;;;;;6.43;1.90;;;14.10;99.90;;;;;;4996706;28;20061;-72
2022/05/11 17:47:45;;;;;;;8.35;2.65;;;14.10;99.90;;;;;;4997383;28;20058;-72
2022/05/11 17:50:15;;;;;;;4.43;2.20;;;14.10;99.90;;;;;;4997497;28;20046;-72
2022/05/11 17:52:43;;;;;;;5.90;2.30;;;14.20;99.90;;;;;;4996649;28;20053;-72
2022/05/11 17:55:12;;;;;;;10.18;2.60;;;14.30;99.90;;;;;;4997361;28;20065;-73
2022/05/11 17:57:40;;;;;;;5.47;2.40;;;14.30;99.90;;;;;;4996550;28;20047;-71
2022/05/11 18:00:10;;;;;;;7.75;2.35;;;14.30;99.90;;;;;;4997395;28;20050;-72
2022/05/11 18:02:38;;;;;;;5.63;1.77;;;14.30;99.90;;;;;;4997278;28;20065;-72
2022/05/11 18:05:07;;;;;;;8.48;2.97;;;14.30;99.90;;;;;;4996218;28;20050;-72
2022/05/11 18:07:35;;;;;;;10.82;3.58;;;14.30;99.90;;;;;;4997339;28;20470;-73
2022/05/11 18:10:06;;;;;;;6.82;2.63;;;14.20;99.90;;;;;;4997221;28;20039;-71
2022/05/11 18:12:34;;;;;;;6.20;2.83;;;14.20;99.90;;;;;;4995571;28;20058;-70
2022/05/11 18:15:01;;;;;;;7.28;3.05;;;14.20;99.90;;;;;;4997285;28;20057;-73
2022/05/11 18:17:29;;;;;;;4.68;2.28;;;14.30;99.90;;;;;;4996067;28;20453;-72
2022/05/11 18:19:57;;;;;;;7.78;2.30;;;14.20;99.90;;;;;;4997127;28;20050;-71
2022/05/11 18:22:24;;;;;;;8.90;2.50;;;14.10;99.90;;;;;;4996802;28;20046;-71
2022/05/11 18:24:52;;;;;;;6.68;2.28;;;14.00;99.90;;;;;;4979318;28;20050;-70
2022/05/11 18:27:21;;;;;;;5.50;2.20;;;13.90;99.90;;;;;;4997296;28;20050;-71
2022/05/11 18:29:48;;;;;;;10.07;2.42;;;13.90;99.90;;;;;;4979853;28;20045;-71
2022/05/11 18:32:16;;;;;;;7.82;2.50;;;13.80;99.90;;;;;;4995729;28;20042;-70
2022/05/11 18:34:44;;;;;;;10.40;2.42;;;13.80;99.90;;;;;;4996896;28;20418;-71
2022/05/11 18:37:12;;;;;;;5.70;1.92;;;13.80;99.90;;;;;;4996855;28;20058;-70
2022/05/11 18:39:39;;;;;;;9.60;2.10;;;13.70;99.90;;;;;;4995339;28;20050;-70
2022/05/11 18:42:08;;;;;;;6.93;1.90;;;13.60;99.90;;;;;;4997301;28;20057;-71
2022/05/11 18:44:36;;;;;;;11.05;2.38;;;13.60;99.90;;;;;;4996078;28;20050;-71
2022/05/11 18:47:04;;;;;;;9.20;2.30;;;13.60;99.90;;;;;;4996721;28;20054;-70
2022/05/11 18:49:31;;;;;;;6.05;2.05;;;13.60;99.90;;;;;;4996877;28;20053;-70
2022/05/11 18:52:00;;;;;;;13.25;2.42;;;13.50;99.90;;;;;;4996049;28;20068;-71
2022/05/11 18:54:30;;;;;;;13.52;2.33;;;13.60;99.90;;;;;;4996033;28;20484;-71
2022/05/11 18:56:58;;;;;;;12.63;2.28;;;13.50;99.90;;;;;;4996461;28;20061;-71
2022/05/11 18:59:26;;;;;;;12.43;2.30;;;13.50;99.90;;;;;;4995716;28;20050;-69
2022/05/11 19:01:53;;;;;;;7.78;2.30;;;13.50;99.90;;;;;;4996177;28;20046;-71
2022/05/11 19:04:21;;;;;;;13.93;3.47;;;13.60;99.90;;;;;;5002553;28;20046;-72
2022/05/11 19:06:48;;;;;;;8.30;2.58;;;13.60;99.90;;;;;;5012717;28;20049;-72
2022/05/11 19:09:17;;;;;;;10.38;2.70;;;13.60;99.90;;;;;;5015505;28;20046;-71
2022/05/11 19:11:44;;;;;;;;;;;13.60;99.90;;;;;;5015400;28;20042;-71
2022/05/11 19:14:13;;;;;;;9.73;2.45;;;13.60;99.90;;;;;;5015989;28;19921;-72
2022/05/11 19:16:46;;;;;;;11.10;2.25;;;13.50;99.90;;;;;;5016370;28;20069;-71
2022/05/11 19:19:14;;;;;;;9.27;2.50;;;13.50;99.90;;;;;;5015073;28;20076;-70
2022/05/11 19:21:42;;;;;;;11.82;2.88;;;13.50;99.90;;;;;;5016373;28;20054;-70
2022/05/11 19:24:11;;;;;;;10.77;2.60;;;13.50;99.90;;;;;;5015030;28;20072;-71
2022/05/11 19:26:38;;;;;;;;;;;13.50;99.90;;;;;;5016491;28;20349;-71
2022/05/11 19:29:07;;;;;;;14.18;3.08;;;13.40;99.90;;;;;;5016268;28;19928;-71
2022/05/11 19:31:35;;;;;;;13.93;2.70;;;13.40;99.90;;;;;;5015217;28;20361;-70
2022/05/11 19:34:03;;;;;;;10.77;2.70;;;13.30;99.90;;;;;;5015433;28;20370;-71
2022/05/11 19:36:31;;;;;;;13.80;3.08;;;13.30;99.90;;;;;;5013509;28;20054;-71
2022/05/11 19:39:00;;;;;;;13.57;3.53;;;13.20;99.90;;;;;;5014024;28;20077;-73
2022/05/11 19:41:30;;;;;;;11.80;3.47;;;13.10;99.90;;;;;;5015979;28;20057;-72
2022/05/11 19:43:57;;;;;;;13.30;3.40;;;13.10;99.90;;;;;;5015074;28;20072;-73
2022/05/11 19:46:27;;;;;;;12.63;3.47;;;13.00;99.90;;;;;;5014981;28;20487;-72
2022/05/11 19:48:55;;;;;;;16.55;3.53;;;12.90;99.90;;;;;;5015910;28;20442;-73
2022/05/11 19:51:22;;;;;;;13.13;3.58;;;12.90;99.90;;;;;;5014455;28;20046;-71
2022/05/11 19:53:51;;;;;;;17.10;3.35;;;12.90;99.90;;;;;;5015335;28;20060;-71
2022/05/11 19:56:19;;;;;;;;;;;12.80;99.90;;;;;;5008206;28;20441;-71
2022/05/11 19:58:47;;;;;;;15.20;4.07;;;12.70;99.90;;;;;;4994756;28;19925;-69
2022/05/11 20:01:15;;;;;;;16.27;3.50;;;12.70;99.90;;;;;;4995914;28;20473;-72
2022/05/11 20:03:43;;;;;;;14.45;3.88;;;12.70;99.90;;;;;;4995403;28;20055;-72
2022/05/11 20:06:14;;;;;;;;;;;12.60;99.90;;;;;;5002964;28;20045;-72
2022/05/11 20:08:43;;;;;;;15.88;3.97;;;12.50;99.90;;;;;;4997181;28;19921;-71
2022/05/11 20:11:10;;;;;;;20.85;4.43;;;12.50;99.90;;;;;;5014474;28;20042;-71
2022/05/11 20:13:39;;;;;;;15.23;4.50;;;12.40;99.90;;;;;;5014918;28;20050;-70
2022/05/11 20:16:08;;;;;;;20.33;4.40;;;12.40;99.90;;;;;;5014946;28;20045;-72
2022/05/11 20:18:37;;;;;;;14.15;4.05;;;12.40;99.90;;;;;;5014039;28;20053;-71
2022/05/11 20:21:05;;;;;;;16.58;4.00;;;12.30;99.90;;;;;;5015569;28;20045;-71
2022/05/11 20:23:39;;;;;;;10.68;4.25;;;12.30;99.90;;;;;;5014788;28;20049;-71
2022/05/11 20:26:09;;;;;;;17.10;4.50;;;12.30;99.90;;;;;;5013812;28;20042;-75
2022/05/11 20:28:38;;;;;;;14.10;4.25;;;12.20;99.90;;;;;;5015498;28;20054;-70
2022/05/11 20:36:44;;;;;;;16.83;3.85;;;12.10;99.90;;;;;;4994920;28;20054;-72
2022/05/11 20:39:12;;;;;;;13.18;4.00;;;12.10;99.90;;;;;;4994056;28;20054;-72
2022/05/11 20:41:39;;;;;;;19.50;4.45;;;12.00;99.90;;;;;;4995143;28;20050;-71
2022/05/11 20:44:07;;;;;;;17.65;3.80;;;12.00;99.90;;;;;;4994251;28;20066;-70
2022/05/11 20:46:35;;;;;;;16.98;4.70;;;12.00;99.90;;;;;;4999071;28;20038;-72
2022/05/11 20:49:04;;;;;;;16.33;4.00;;;11.90;99.90;;;;;;4999167;28;20058;-73
2022/05/11 20:51:32;;;;;;;19.80;4.68;;;11.90;99.90;;;;;;4997535;28;20049;-72
2022/05/11 20:54:00;;;;;;;20.90;4.65;;;11.80;99.90;;;;;;4999046;28;20389;-72
2022/05/11 20:56:27;;;;;;;20.13;4.43;;;11.70;99.90;;;;;;4999452;28;20058;-73
2022/05/11 20:58:56;;;;;;;21.52;4.50;;;11.70;99.90;;;;;;4998170;28;20058;-73
2022/05/11 21:01:23;;;;;;;;;;;11.70;99.90;;;;;;4999122;28;20050;-73
2022/05/11 21:03:51;;;;;;;21.83;4.35;;;11.70;99.90;;;;;;4997871;28;19921;-72
2022/05/11 21:06:18;;;;;;;19.38;4.63;;;11.60;99.90;;;;;;4997174;28;20057;-73
2022/05/11 21:08:46;;;;;;;21.25;4.50;;;11.60;99.90;;;;;;4997155;28;20046;-71
2022/05/11 21:11:13;;;;;;;18.30;4.35;;;11.50;99.90;;;;;;4978254;28;20039;-72
2022/05/11 21:13:43;;;;;;;24.98;5.03;;;11.50;99.90;;;;;;4996634;28;20042;-73
2022/05/11 21:16:12;;;;;;;17.55;4.10;;;11.50;99.90;;;;;;4980808;28;20381;-74
2022/05/11 21:18:39;;;;;;;16.98;4.53;;;11.40;99.90;;;;;;4997050;28;20050;-72
2022/05/11 21:21:08;;;;;;;22.95;4.30;;;11.40;99.90;;;;;;4998613;28;20053;-72
2022/05/11 21:23:37;;;;;;;23.42;4.28;;;11.30;99.90;;;;;;4981283;28;20378;-74
2022/05/11 21:26:04;;;;;;;20.13;4.28;;;11.30;99.90;;;;;;4997104;28;20057;-74
2022/05/11 21:28:32;;;;;;;19.17;3.88;;;11.30;99.90;;;;;;4998328;28;20050;-75
2022/05/11 21:31:00;;;;;;;17.90;4.00;;;11.30;99.90;;;;;;4996469;28;20050;-75